Current Weather

Tcnl Rafael Pabon

Tcnl Rafael Pabon, Bolivia (SLVM)

Report from: Friday, December 2, 2022 2:00 PM -04
Current time: Sunday, December 4, 2022 7:12 AM -04

Nearby weather
Weather history
Weather forecast

Temperature28.0°C (82.4°F)
Heat index28.6°C (83.5°F)
Dew point16.0°C (60.8°F)
Winds Calm
Visibility6.2 mi. (10 km)
Clouds Ceiling: Overcast 7,000 ft. (2,134 m)
Altimeter29.91 in.Hg (1013 mB)
Relative humidity48 %
Density altitude1,755 ft. (535 m)
Flight conditions Visual Meteorological Conditions
Raw dataSLVM 021800Z 00000KT 9999 OVC070 28/16 Q1013
An error has occurred. This application may no longer respond until reloaded. Reload 🗙